sensor_id;sensor_type;location;lat;lon;timestamp;P1;durP1;ratioP1;P2;durP2;ratioP2
71955;SDS011;59829;50.562;6.258;2022-08-30T00:05:07;0.20;;;0.15;;
71955;SDS011;59829;50.562;6.258;2022-08-30T00:15:41;0.20;;;0.10;;
71955;SDS011;59829;50.562;6.258;2022-08-30T00:25:55;0.03;;;0.00;;
71955;SDS011;59829;50.562;6.258;2022-08-30T00:35:58;0.85;;;0.20;;
71955;SDS011;59829;50.562;6.258;2022-08-30T00:46:11;0.22;;;0.10;;
71955;SDS011;59829;50.562;6.258;2022-08-30T00:56:31;0.35;;;0.20;;
71955;SDS011;59829;50.562;6.258;2022-08-30T01:06:51;0.28;;;0.28;;
71955;SDS011;59829;50.562;6.258;2022-08-30T01:27:45;0.50;;;0.30;;
71955;SDS011;59829;50.562;6.258;2022-08-30T01:38:20;0.60;;;0.40;;
71955;SDS011;59829;50.562;6.258;2022-08-30T01:48:26;1.08;;;0.38;;
71955;SDS011;59829;50.562;6.258;2022-08-30T01:58:52;0.20;;;0.20;;
71955;SDS011;59829;50.562;6.258;2022-08-30T02:08:58;0.30;;;0.20;;
71955;SDS011;59829;50.562;6.258;2022-08-30T02:19:16;0.70;;;0.50;;
71955;SDS011;59829;50.562;6.258;2022-08-30T02:29:29;0.10;;;0.10;;
71955;SDS011;59829;50.562;6.258;2022-08-30T02:39:51;0.20;;;0.10;;
71955;SDS011;59829;50.562;6.258;2022-08-30T02:50:30;0.50;;;0.20;;
71955;SDS011;59829;50.562;6.258;2022-08-30T03:00:59;0.20;;;0.10;;
71955;SDS011;59829;50.562;6.258;2022-08-30T03:11:20;0.20;;;0.10;;
71955;SDS011;59829;50.562;6.258;2022-08-30T03:21:31;0.50;;;0.30;;
71955;SDS011;59829;50.562;6.258;2022-08-30T03:32:02;0.93;;;0.38;;
71955;SDS011;59829;50.562;6.258;2022-08-30T03:42:27;0.38;;;0.20;;
71955;SDS011;59829;50.562;6.258;2022-08-30T03:52:40;0.20;;;0.10;;
71955;SDS011;59829;50.562;6.258;2022-08-30T04:02:51;0.50;;;0.20;;
71955;SDS011;59829;50.562;6.258;2022-08-30T04:13:04;0.15;;;0.10;;
71955;SDS011;59829;50.562;6.258;2022-08-30T04:23:21;0.43;;;0.30;;
71955;SDS011;59829;50.562;6.258;2022-08-30T05:37:06;0.88;;;0.35;;
71955;SDS011;59829;50.562;6.258;2022-08-30T05:47:07;0.25;;;0.15;;
71955;SDS011;59829;50.562;6.258;2022-08-30T05:57:08;0.10;;;0.05;;
71955;SDS011;59829;50.562;6.258;2022-08-30T06:07:09;0.60;;;0.10;;
71955;SDS011;59829;50.562;6.258;2022-08-30T06:17:10;2.38;;;1.27;;
71955;SDS011;59829;50.562;6.258;2022-08-30T06:27:10;2.08;;;1.10;;
71955;SDS011;59829;50.562;6.258;2022-08-30T06:37:11;0.50;;;0.45;;
71955;SDS011;59829;50.562;6.258;2022-08-30T06:47:12;0.38;;;0.20;;
71955;SDS011;59829;50.562;6.258;2022-08-30T06:57:13;0.90;;;0.45;;
71955;SDS011;59829;50.562;6.258;2022-08-30T07:07:14;0.82;;;0.60;;
71955;SDS011;59829;50.562;6.258;2022-08-30T07:17:15;1.20;;;0.52;;
71955;SDS011;59829;50.562;6.258;2022-08-30T07:27:35;0.57;;;0.22;;
71955;SDS011;59829;50.562;6.258;2022-08-30T07:37:35;0.50;;;0.40;;
71955;SDS011;59829;50.562;6.258;2022-08-30T07:47:36;0.60;;;0.40;;
71955;SDS011;59829;50.562;6.258;2022-08-30T07:57:38;0.50;;;0.30;;
71955;SDS011;59829;50.562;6.258;2022-08-30T08:07:39;1.15;;;0.70;;
71955;SDS011;59829;50.562;6.258;2022-08-30T08:17:40;1.50;;;0.80;;
71955;SDS011;59829;50.562;6.258;2022-08-30T08:27:41;1.58;;;0.70;;
71955;SDS011;59829;50.562;6.258;2022-08-30T08:37:42;1.65;;;0.70;;
71955;SDS011;59829;50.562;6.258;2022-08-30T08:57:44;2.78;;;1.10;;
71955;SDS011;59829;50.562;6.258;2022-08-30T09:07:48;1.02;;;0.73;;
71955;SDS011;59829;50.562;6.258;2022-08-30T09:17:54;1.58;;;0.85;;
71955;SDS011;59829;50.562;6.258;2022-08-30T09:28:09;2.83;;;1.20;;
71955;SDS011;59829;50.562;6.258;2022-08-30T09:38:21;3.47;;;1.20;;
71955;SDS011;59829;50.562;6.258;2022-08-30T09:58:30;4.90;;;1.42;;
71955;SDS011;59829;50.562;6.258;2022-08-30T10:29:30;1.90;;;1.00;;
71955;SDS011;59829;50.562;6.258;2022-08-30T10:39:39;1.33;;;1.00;;
71955;SDS011;59829;50.562;6.258;2022-08-30T10:49:45;2.33;;;1.00;;
71955;SDS011;59829;50.562;6.258;2022-08-30T10:59:50;1.45;;;0.73;;
71955;SDS011;59829;50.562;6.258;2022-08-30T11:10:13;1.45;;;0.70;;
71955;SDS011;59829;50.562;6.258;2022-08-30T11:20:45;1.48;;;0.90;;
71955;SDS011;59829;50.562;6.258;2022-08-30T17:38:49;3.08;;;1.38;;
71955;SDS011;59829;50.562;6.258;2022-08-30T17:48:50;4.25;;;1.77;;
71955;SDS011;59829;50.562;6.258;2022-08-30T17:58:50;1.73;;;1.00;;
71955;SDS011;59829;50.562;6.258;2022-08-30T18:08:51;1.93;;;1.10;;
71955;SDS011;59829;50.562;6.258;2022-08-30T18:18:52;2.25;;;1.55;;
71955;SDS011;59829;50.562;6.258;2022-08-30T18:28:54;2.73;;;1.23;;
71955;SDS011;59829;50.562;6.258;2022-08-30T18:38:55;2.38;;;1.30;;
71955;SDS011;59829;50.562;6.258;2022-08-30T18:48:55;2.70;;;1.52;;
71955;SDS011;59829;50.562;6.258;2022-08-30T18:58:56;1.27;;;0.90;;
71955;SDS011;59829;50.562;6.258;2022-08-30T19:08:56;1.73;;;1.30;;
71955;SDS011;59829;50.562;6.258;2022-08-30T19:18:56;1.38;;;1.00;;
71955;SDS011;59829;50.562;6.258;2022-08-30T19:28:57;1.90;;;1.30;;
71955;SDS011;59829;50.562;6.258;2022-08-30T19:38:57;1.40;;;0.82;;
71955;SDS011;59829;50.562;6.258;2022-08-30T19:48:58;1.40;;;1.05;;
71955;SDS011;59829;50.562;6.258;2022-08-30T19:59:00;1.10;;;0.83;;
71955;SDS011;59829;50.562;6.258;2022-08-30T20:09:00;1.80;;;1.10;;
71955;SDS011;59829;50.562;6.258;2022-08-30T20:19:01;0.85;;;0.80;;
71955;SDS011;59829;50.562;6.258;2022-08-30T20:29:02;0.98;;;0.80;;
71955;SDS011;59829;50.562;6.258;2022-08-30T20:39:03;1.10;;;1.00;;
71955;SDS011;59829;50.562;6.258;2022-08-30T20:49:08;2.17;;;1.33;;
71955;SDS011;59829;50.562;6.258;2022-08-30T20:59:09;1.00;;;0.77;;
71955;SDS011;59829;50.562;6.258;2022-08-30T21:09:10;2.15;;;1.20;;
71955;SDS011;59829;50.562;6.258;2022-08-30T21:19:11;1.15;;;0.90;;
71955;SDS011;59829;50.562;6.258;2022-08-30T21:29:12;1.25;;;0.80;;
71955;SDS011;59829;50.562;6.258;2022-08-30T21:49:25;1.15;;;0.80;;
71955;SDS011;59829;50.562;6.258;2022-08-30T21:59:25;2.45;;;1.10;;
71955;SDS011;59829;50.562;6.258;2022-08-30T22:09:27;1.33;;;0.90;;
71955;SDS011;59829;50.562;6.258;2022-08-30T22:19:28;1.30;;;1.00;;
71955;SDS011;59829;50.562;6.258;2022-08-30T22:29:28;2.42;;;1.10;;
71955;SDS011;59829;50.562;6.258;2022-08-30T22:39:29;1.48;;;0.90;;
71955;SDS011;59829;50.562;6.258;2022-08-30T22:49:30;1.77;;;1.10;;
71955;SDS011;59829;50.562;6.258;2022-08-30T22:59:30;1.20;;;0.70;;
71955;SDS011;59829;50.562;6.258;2022-08-30T23:09:31;1.33;;;0.87;;
71955;SDS011;59829;50.562;6.258;2022-08-30T23:19:31;1.40;;;1.00;;
71955;SDS011;59829;50.562;6.258;2022-08-30T23:29:32;1.10;;;0.80;;
